Погода Скенчнона 2 недели

Лодзинское воеводство, Польша

25 июля-07 августа
  • 25июля
    Сегодня
    +11°
    +23°
    Практически безоблачно
    ВремяПогодаТемператураВлажностьДавлениеВетер, м/сВероятность осадков
    02:00Ясно и безоблачно+15°C83 %749 мм3.6 м/с6 %
    05:00Ясно и безоблачно+14°C91 %750 мм4.0 м/с3 %
    08:00Ясно и безоблачно+17°C74 %750 мм4.2 м/с5 %
    11:00Практически безоблачно+20°C51 %750 мм5.2 м/с10 %
    14:00Практически безоблачно+22°C43 %750 мм4.8 м/с22 %
    17:00Практически безоблачно+22°C37 %749 мм4.6 м/с13 %
    20:00Облачно с прояснениями+20°C48 %749 мм1.9 м/с2 %
    23:00Ясно и безоблачно+15°C64 %749 мм2.0 м/с2 %
  • 26июля
    Пятница
    +16°
    +25°
    Ясно и безоблачно
    ВремяПогодаТемператураВлажностьДавлениеВетер, м/сВероятность осадков
    02:00Ясно и безоблачно+13°C79 %749 мм2.0 м/с2 %
    05:00Ясно и безоблачно+11°C88 %749 мм2.2 м/с2 %
    08:00Небольшая облачность+17°C71 %750 мм1.4 м/с2 %
    11:00Небольшая облачность+21°C43 %749 мм1.3 м/с2 %
    14:00Ясно и безоблачно+24°C37 %749 мм2.0 м/с2 %
    17:00Облачно с прояснениями+25°C34 %749 мм2.1 м/с2 %
    20:00Облачно с прояснениями+23°C53 %749 мм1.6 м/с1 %
    23:00Облачно с прояснениями+18°C62 %750 мм0.6 м/с3 %
  • 27июля
    Суббота
    +19°
    +30°
    Пасмурно, сплошная облачность
    ВремяПогодаТемператураВлажностьДавлениеВетер, м/сВероятность осадков
    02:00Облачно с прояснениями+17°C65 %750 мм0.9 м/с2 %
    05:00Небольшая облачность+15°C69 %750 мм1.9 м/с2 %
    08:00Облачно с прояснениями+20°C56 %751 мм2.2 м/с2 %
    11:00Небольшая облачность+26°C39 %751 мм2.3 м/с2 %
    14:00Пасмурно, сплошная облачность+29°C31 %750 мм3.4 м/с2 %
    17:00Небольшая облачность+30°C36 %750 мм3.8 м/с4 %
    20:00Практически безоблачно+27°C53 %750 мм2.2 м/с3 %
    23:00Облачно с прояснениями+22°C63 %750 мм1.7 м/с10 %
  • 28июля
    Воскресенье
    +12°
    +23°
    Пасмурно, небольшой дождь
    ВремяПогодаТемператураВлажностьДавлениеВетер, м/сВероятность осадков
    02:00Небольшая облачность+21°C71 %749 мм2.6 м/с14 %
    05:00Облачно с прояснениями+20°C81 %748 мм4.2 м/с16 %
    08:00Облачно с прояснениями+23°C75 %749 мм5.4 м/с22 %
    11:00Пасмурно, небольшой дождь+26°C62 %751 мм8.2 м/с29 %
    14:00Пасмурно, небольшой дождь+26°C51 %753 мм6.9 м/с61 %
    17:00Небольшая облачность и лёгкий дождик+19°C77 %754 мм7.4 м/с58 %
    20:00Ясно и безоблачно+19°C62 %755 мм4.8 м/с44 %
    23:00Ясно и безоблачно+16°C85 %756 мм3.7 м/с35 %
  • 29июля
    Понедельник
    +12°
    +23°
    Небольшая облачность
    ВремяПогодаТемператураВлажностьДавлениеВетер, м/сВероятность осадков
    02:00Ясно и безоблачно+14°C95 %756 мм3.8 м/с30 %
    05:00Ясно и безоблачно+13°C96 %756 мм3.9 м/с21 %
    08:00Ясно и безоблачно+17°C79 %756 мм5.0 м/с14 %
    11:00Ясно и безоблачно+20°C52 %755 мм6.0 м/с14 %
    14:00Небольшая облачность+22°C43 %754 мм7.4 м/с13 %
    17:00Небольшая облачность+23°C42 %754 мм6.9 м/с12 %
    20:00Ясно и безоблачно+21°C49 %753 мм5.1 м/с5 %
    23:00Ясно и безоблачно+16°C65 %754 мм4.6 м/с3 %
Мы используем cookies
Соглашаюсь